Time;durP1;ratioP1;P1;durP2;ratioP2;P2;SDS_P1;SDS_P2;PMS_P1;PMS_P2;Temp;Humidity;BMP_temperature;BMP_pressure;BME280_temperature;BME280_humidity;BME280_pressure;Samples;Min_cycle;Max_cycle;Signal;HPM_P1;HPM_P2
2023/08/15 00:00:17;;;;;;;20.20;13.50;;;;;;;19.17;100.00;99240.18;136457;1285;22701;-82
2023/08/15 00:03:40;;;;;;;16.40;13.20;;;;;;;19.09;100.00;99245.59;135859;1285;22364;-83
2023/08/15 00:06:42;;;;;;;17.90;13.90;;;;;;;19.03;100.00;99250.23;135773;1282;22448;-81
2023/08/15 00:09:45;;;;;;;21.90;13.90;;;;;;;19.00;100.00;99248.17;136162;1285;22603;-83
2023/08/15 00:12:47;;;;;;;20.50;13.90;;;;;;;18.92;100.00;99251.48;136042;1278;22199;-82
2023/08/15 00:15:50;;;;;;;17.00;13.60;;;;;;;18.84;100.00;99255.13;135838;1285;22195;-82
2023/08/15 00:18:52;;;;;;;18.10;13.30;;;;;;;18.77;100.00;99255.59;135917;1285;22600;-83
2023/08/15 00:21:55;;;;;;;18.80;13.00;;;;;;;18.73;100.00;99250.88;136482;1285;22673;-82
2023/08/15 00:24:58;;;;;;;812.50;81.60;;;;;;;18.67;100.00;99240.74;136094;1282;22386;-83
2023/08/15 00:28:00;;;;;;;50.00;15.50;;;;;;;18.62;100.00;99241.34;135945;1282;22567;-82
2023/08/15 00:31:03;;;;;;;28.80;14.40;;;;;;;18.60;100.00;99238.87;136423;1282;22238;-82
2023/08/15 00:34:05;;;;;;;19.80;13.50;;;;;;;18.60;100.00;99236.59;135905;1282;22567;-82
2023/08/15 00:37:08;;;;;;;22.70;13.80;;;;;;;18.57;100.00;99237.68;136016;1276;22049;-82
2023/08/15 00:40:13;;;;;;;24.30;13.70;;;;;;;18.53;100.00;99238.80;136448;1282;22536;-84
2023/08/15 00:43:17;;;;;;;16.90;14.30;;;;;;;18.52;100.00;99243.58;136216;1282;22194;-82
2023/08/15 00:46:20;;;;;;;15.60;13.10;;;;;;;18.54;100.00;99238.80;136060;1279;22712;-82
2023/08/15 00:49:22;;;;;;;27.80;14.70;;;;;;;18.51;100.00;99234.07;136217;1283;22547;-83
2023/08/15 00:52:25;;;;;;;16.10;13.10;;;;;;;18.45;100.00;99236.80;136496;1283;22159;-82
2023/08/15 00:55:27;;;;;;;14.20;12.30;;;;;;;18.43;100.00;99238.59;136966;1274;22193;-81
2023/08/15 00:58:30;;;;;;;20.10;13.20;;;;;;;18.43;100.00;99237.52;137451;1274;22135;-82
2023/08/15 01:01:32;;;;;;;22.40;14.50;;;;;;;18.43;100.00;99234.00;137414;1274;22124;-82
2023/08/15 01:04:35;;;;;;;16.80;14.00;;;;;;;18.41;100.00;99230.15;137487;1274;22067;-82
2023/08/15 01:07:37;;;;;;;15.90;13.70;;;;;;;18.40;100.00;99225.94;137468;1266;22087;-82
2023/08/15 01:10:40;;;;;;;18.70;13.50;;;;;;;18.41;100.00;99223.46;137483;1274;22712;-82
2023/08/15 01:13:42;;;;;;;14.60;13.00;;;;;;;18.41;100.00;99220.11;137441;1274;22615;-81
2023/08/15 01:16:45;;;;;;;17.60;14.20;;;;;;;18.43;100.00;99221.84;137512;1273;22287;-81
2023/08/15 01:19:47;;;;;;;315.00;33.90;;;;;;;18.47;100.00;99219.50;137513;1274;22124;-81
2023/08/15 01:22:50;;;;;;;24.10;14.50;;;;;;;18.52;100.00;99218.55;137476;1274;22599;-83
2023/08/15 01:25:52;;;;;;;21.30;13.90;;;;;;;18.54;100.00;99217.11;137441;1274;22250;-82
2023/08/15 01:28:57;;;;;;;16.70;13.20;;;;;;;18.54;100.00;99215.89;137432;1274;23059;-82
2023/08/15 01:32:00;;;;;;;19.70;14.00;;;;;;;18.56;100.00;99213.38;137408;1274;22614;-82
2023/08/15 01:35:05;;;;;;;14.60;13.20;;;;;;;18.62;100.00;99216.31;137450;1274;22635;-82
2023/08/15 01:38:08;;;;;;;15.30;13.80;;;;;;;18.68;100.00;99217.64;137433;1274;22039;-82
2023/08/15 01:41:10;;;;;;;15.70;14.30;;;;;;;18.72;100.00;99218.27;137428;1274;22210;-81
2023/08/15 01:44:13;;;;;;;19.00;14.50;;;;;;;18.73;100.00;99217.55;137410;1274;22264;-82
2023/08/15 01:47:15;;;;;;;20.30;13.90;;;;;;;18.72;100.00;99216.16;137470;1274;22531;-82
2023/08/15 01:50:19;;;;;;;16.80;13.70;;;;;;;18.70;100.00;99215.49;137457;1274;22067;-82
2023/08/15 01:53:21;;;;;;;19.60;13.10;;;;;;;18.70;100.00;99215.67;137415;1274;22025;-82
2023/08/15 01:56:24;;;;;;;16.30;13.90;;;;;;;18.69;100.00;99214.98;137447;1274;22666;-82
2023/08/15 01:59:26;;;;;;;18.00;13.40;;;;;;;18.65;100.00;99215.05;137452;1274;22500;-83
2023/08/15 02:02:29;;;;;;;14.20;12.80;;;;;;;18.59;100.00;99215.80;137426;1274;22706;-82
2023/08/15 02:05:31;;;;;;;20.00;13.60;;;;;;;18.55;100.00;99217.98;137486;1274;22639;-82
2023/08/15 02:08:34;;;;;;;14.60;12.90;;;;;;;18.51;100.00;99218.04;137465;1274;22495;-82
2023/08/15 02:11:38;;;;;;;15.00;13.50;;;;;;;18.48;100.00;99222.13;137465;1274;22036;-82
2023/08/15 02:14:41;;;;;;;13.80;12.60;;;;;;;18.46;100.00;99220.74;137409;1274;22196;-83
2023/08/15 02:17:43;;;;;;;14.50;12.90;;;;;;;18.44;100.00;99219.00;137486;1274;22092;-82
2023/08/15 02:20:46;;;;;;;14.50;13.00;;;;;;;18.39;100.00;99221.38;137434;1274;22572;-82
2023/08/15 02:23:48;;;;;;;14.40;12.80;;;;;;;18.36;100.00;99219.30;137486;1274;22106;-82
2023/08/15 02:26:51;;;;;;;15.80;14.10;;;;;;;18.34;100.00;99219.15;137460;1274;22674;-82
2023/08/15 02:29:53;;;;;;;14.70;13.30;;;;;;;18.30;100.00;99223.07;137440;1274;22580;-82
2023/08/15 02:32:58;;;;;;;17.80;14.20;;;;;;;18.27;100.00;99222.77;137431;1274;22149;-82
2023/08/15 02:36:01;;;;;;;18.90;13.70;;;;;;;18.26;100.00;99228.06;137397;1275;22064;-82
2023/08/15 02:39:03;;;;;;;41.30;14.40;;;;;;;18.20;100.00;99228.30;137420;1275;22234;-82
2023/08/15 02:42:06;;;;;;;15.20;12.30;;;;;;;18.17;100.00;99225.15;137401;1275;22049;-81
2023/08/15 02:45:08;;;;;;;14.40;12.50;;;;;;;18.10;100.00;99225.23;137399;1275;22150;-82
2023/08/15 02:48:11;;;;;;;14.30;12.70;;;;;;;18.05;100.00;99223.02;137418;1275;22113;-82
2023/08/15 02:51:13;;;;;;;15.60;13.40;;;;;;;18.00;100.00;99222.73;137383;1275;22209;-82
2023/08/15 02:54:15;;;;;;;14.50;12.40;;;;;;;17.97;100.00;99226.11;137428;1275;22089;-82
2023/08/15 02:57:18;;;;;;;13.00;11.80;;;;;;;17.92;100.00;99224.41;137448;1275;22113;-82
2023/08/15 03:00:20;;;;;;;13.30;12.00;;;;;;;17.87;100.00;99224.98;137422;1275;22122;-81
2023/08/15 03:03:25;;;;;;;15.30;12.10;;;;;;;17.80;100.00;99224.89;137386;1275;22532;-82
2023/08/15 03:06:28;;;;;;;13.50;12.00;;;;;;;17.76;100.00;99220.18;137396;1275;22525;-83
2023/08/15 03:09:30;;;;;;;16.50;11.80;;;;;;;17.73;100.00;99217.76;137409;1275;22138;-83
2023/08/15 03:12:33;;;;;;;15.10;12.60;;;;;;;17.71;100.00;99221.48;137381;1275;22088;-82
2023/08/15 03:15:35;;;;;;;14.00;11.90;;;;;;;17.69;100.00;99223.95;137403;1275;22241;-83
2023/08/15 03:18:38;;;;;;;12.90;11.80;;;;;;;17.70;100.00;99224.48;137373;1275;22043;-83
2023/08/15 03:21:40;;;;;;;14.00;11.70;;;;;;;17.72;100.00;99225.87;137403;1275;22200;-83
2023/08/15 03:24:44;;;;;;;13.00;11.40;;;;;;;17.73;100.00;99222.16;137424;1275;22748;-83
2023/08/15 03:27:47;;;;;;;13.40;12.10;;;;;;;17.72;100.00;99220.75;137406;1275;22158;-83
2023/08/15 03:30:51;;;;;;;14.40;12.10;;;;;;;17.69;100.00;99220.45;137404;1275;22332;-83
2023/08/15 03:33:54;;;;;;;13.10;11.80;;;;;;;17.69;100.00;99220.80;137415;1275;22039;-82
2023/08/15 03:37:02;;;;;;;13.90;12.00;;;;;;;17.71;100.00;99223.59;137344;1275;22065;-82
2023/08/15 03:40:04;;;;;;;13.70;11.70;;;;;;;17.74;100.00;99224.26;137380;1271;22089;-81
2023/08/15 03:43:07;;;;;;;14.40;12.90;;;;;;;17.77;100.00;99223.52;137402;1275;22229;-81
2023/08/15 03:46:09;;;;;;;15.90;13.50;;;;;;;17.80;100.00;99224.53;137422;1275;22070;-82
2023/08/15 03:49:12;;;;;;;14.70;12.40;;;;;;;17.80;100.00;99223.48;137439;1275;22072;-82
2023/08/15 03:52:14;;;;;;;14.60;11.90;;;;;;;17.78;100.00;99226.84;137402;1263;22054;-82
2023/08/15 03:55:17;;;;;;;13.00;11.70;;;;;;;17.80;100.00;99226.83;137427;1275;22083;-83
2023/08/15 03:58:22;;;;;;;16.50;14.10;;;;;;;17.85;100.00;99229.24;137396;1275;22085;-82
2023/08/15 04:01:24;;;;;;;15.20;13.10;;;;;;;17.92;100.00;99230.39;137414;1275;22032;-82
2023/08/15 04:04:27;;;;;;;19.10;14.20;;;;;;;17.98;100.00;99232.61;137432;1275;22087;-82
2023/08/15 04:07:29;;;;;;;15.10;13.50;;;;;;;18.05;100.00;99235.52;137397;1275;22099;-82
2023/08/15 04:10:32;;;;;;;19.00;13.60;;;;;;;18.13;100.00;99236.65;137410;1275;22131;-83
2023/08/15 04:13:34;;;;;;;13.80;12.40;;;;;;;18.18;100.00;99234.66;137442;1275;22838;-83
2023/08/15 04:16:38;;;;;;;15.30;12.50;;;;;;;18.21;100.00;99239.76;137438;1275;22148;-82
2023/08/15 04:19:40;;;;;;;562.40;79.40;;;;;;;18.26;100.00;99241.27;137553;1272;22240;-84
2023/08/15 04:22:43;;;;;;;400.40;58.20;;;;;;;19.17;100.00;99243.50;137543;1273;22383;-83
2023/08/15 04:25:46;;;;;;;237.30;37.60;;;;;;;20.20;100.00;99243.41;137562;1273;22204;-85
2023/08/15 04:28:48;;;;;;;29.50;15.50;;;;;;;20.92;100.00;99245.95;137555;1273;22205;-85
2023/08/15 04:31:51;;;;;;;22.50;13.50;;;;;;;21.34;100.00;99246.73;137492;1273;22138;-87
2023/08/15 04:34:53;;;;;;;26.10;14.00;;;;;;;21.60;100.00;99249.42;137466;1274;22112;-85
2023/08/15 04:37:56;;;;;;;20.20;14.20;;;;;;;21.89;100.00;99250.61;137466;1274;22138;-86
2023/08/15 04:40:59;;;;;;;18.20;13.70;;;;;;;22.09;100.00;99253.28;137509;1274;22539;-86
2023/08/15 04:44:02;;;;;;;17.90;13.10;;;;;;;22.31;100.00;99254.41;137471;1274;22631;-86
2023/08/15 04:47:05;;;;;;;14.80;13.10;;;;;;;22.61;100.00;99254.05;137483;1274;22228;-86
2023/08/15 04:50:08;;;;;;;29.30;14.80;;;;;;;22.89;100.00;99254.14;137482;1274;22260;-87
2023/08/15 04:53:10;;;;;;;17.80;13.30;;;;;;;23.14;100.00;99260.05;137476;1274;22128;-87
2023/08/15 04:56:13;;;;;;;18.90;13.40;;;;;;;23.35;100.00;99263.81;137485;1274;22248;-84
2023/08/15 04:59:17;;;;;;;19.80;13.60;;;;;;;23.53;100.00;99263.59;137485;1274;22271;-84
2023/08/15 05:02:20;;;;;;;18.30;11.50;;;;;;;23.76;100.00;99259.08;137518;1270;22809;-84
2023/08/15 05:05:22;;;;;;;22.20;12.80;;;;;;;23.98;100.00;99258.14;137545;1274;22047;-85
2023/08/15 05:08:25;;;;;;;37.90;14.10;;;;;;;24.17;100.00;99259.73;137498;1274;22522;-85
2023/08/15 05:11:30;;;;;;;15.40;11.80;;;;;;;24.28;100.00;99261.51;137502;1274;22058;-84
2023/08/15 05:14:32;;;;;;;26.40;20.70;;;;;;;24.28;100.00;99260.27;137515;1274;22123;-84
2023/08/15 05:17:37;;;;;;;19.30;13.30;;;;;;;24.12;100.00;99258.84;137481;1274;22069;-84
2023/08/15 05:20:40;;;;;;;12.60;11.30;;;;;;;23.97;100.00;99261.52;137502;1274;22158;-84
2023/08/15 05:23:43;;;;;;;14.50;11.60;;;;;;;23.82;100.00;99261.17;137499;1274;22312;-84
2023/08/15 05:26:45;;;;;;;14.80;11.70;;;;;;;23.70;100.00;99265.86;137475;1267;22184;-84
2023/08/15 05:29:48;;;;;;;14.00;11.20;;;;;;;23.68;100.00;99265.95;137462;1274;22275;-84
2023/08/15 05:32:51;;;;;;;13.70;10.80;;;;;;;23.68;100.00;99264.68;137532;1273;22200;-84
2023/08/15 05:35:53;;;;;;;19.90;10.80;;;;;;;23.73;100.00;99262.05;137460;1273;22145;-86
2023/08/15 05:38:56;;;;;;;14.00;11.20;;;;;;;23.84;100.00;99258.63;137574;1273;22294;-84
2023/08/15 05:41:58;;;;;;;14.00;10.30;;;;;;;23.93;100.00;99259.54;137590;1273;22233;-84
2023/08/15 05:45:01;;;;;;;11.60;9.90;;;;;;;24.02;100.00;99263.48;137568;1273;22757;-84
2023/08/15 05:48:03;;;;;;;11.20;9.80;;;;;;;24.13;100.00;99262.20;137576;1273;22780;-83
2023/08/15 05:51:06;;;;;;;20.70;15.70;;;;;;;24.21;100.00;99263.51;137605;1273;22125;-83
2023/08/15 05:54:08;;;;;;;14.70;12.00;;;;;;;24.31;100.00;99262.83;137580;1273;22367;-84
2023/08/15 05:57:11;;;;;;;13.40;10.70;;;;;;;24.46;100.00;99259.42;137624;1273;22249;-84
2023/08/15 06:00:13;;;;;;;11.50;10.30;;;;;;;24.65;100.00;99259.42;137599;1273;22091;-85
2023/08/15 06:03:16;;;;;;;16.10;10.50;;;;;;;24.81;100.00;99260.02;137547;1273;22338;-83
2023/08/15 06:06:18;;;;;;;18.50;11.00;;;;;;;24.95;100.00;99261.07;137632;1273;22057;-83
2023/08/15 06:09:21;;;;;;;12.30;10.40;;;;;;;25.02;100.00;99260.11;137652;1273;22259;-83
2023/08/15 06:12:23;;;;;;;14.80;10.10;;;;;;;25.15;100.00;99266.01;137665;1273;22096;-83
2023/08/15 06:15:26;;;;;;;14.00;10.40;;;;;;;25.35;100.00;99261.43;137671;1273;22284;-84
2023/08/15 06:18:31;;;;;;;14.30;10.70;;;;;;;25.56;100.00;99265.20;137544;1273;22058;-84
2023/08/15 06:21:33;;;;;;;17.10;9.50;;;;;;;25.78;100.00;99266.58;137637;1273;22125;-83
2023/08/15 06:24:36;;;;;;;11.80;10.10;;;;;;;25.97;100.00;99270.39;137621;1273;22760;-84
2023/08/15 06:27:38;;;;;;;11.40;9.90;;;;;;;26.13;100.00;99274.17;137608;1273;22104;-83
2023/08/15 06:30:41;;;;;;;11.40;10.20;;;;;;;26.31;100.00;99275.35;137539;1273;22633;-83
2023/08/15 06:33:44;;;;;;;10.80;9.80;;;;;;;26.52;100.00;99279.88;137471;1274;22228;-83
2023/08/15 06:36:46;;;;;;;10.60;9.40;;;;;;;26.73;100.00;99278.74;137510;1274;22051;-83
2023/08/15 06:39:49;;;;;;;10.10;9.10;;;;;;;26.93;100.00;99277.28;137447;1274;22112;-83
2023/08/15 06:42:51;;;;;;;10.90;9.80;;;;;;;27.04;100.00;99279.09;137485;1274;22313;-83
2023/08/15 06:45:59;;;;;;;14.00;9.60;;;;;;;27.26;100.00;99277.67;137464;1267;22484;-84
2023/08/15 06:49:01;;;;;;;16.20;14.60;;;;;;;27.49;100.00;99280.60;137468;1274;22187;-84
2023/08/15 06:52:04;;;;;;;11.40;9.90;;;;;;;27.72;100.00;99278.61;137414;1274;22607;-83
2023/08/15 06:55:07;;;;;;;11.00;9.90;;;;;;;27.91;100.00;99278.35;137472;1274;22122;-83
2023/08/15 06:58:12;;;;;;;13.20;9.90;;;;;;;28.07;100.00;99282.34;137467;1274;22100;-83
2023/08/15 07:01:14;;;;;;;12.00;8.90;;;;;;;28.29;100.00;99285.82;137412;1274;22177;-84
2023/08/15 07:04:17;;;;;;;11.70;8.00;;;;;;;28.47;100.00;99287.36;137479;1274;22278;-83
2023/08/15 07:07:20;;;;;;;10.40;9.30;;;;;;;28.64;100.00;99284.30;137499;1273;22594;-83
2023/08/15 07:10:22;;;;;;;10.50;8.40;;;;;;;28.84;100.00;99286.27;137533;1274;22113;-84
2023/08/15 07:13:25;;;;;;;10.90;8.40;;;;;;;29.01;100.00;99288.04;137497;1274;22131;-84
2023/08/15 07:16:27;;;;;;;11.60;8.00;;;;;;;29.07;100.00;99289.30;137543;1274;22356;-84
2023/08/15 07:19:30;;;;;;;9.40;7.20;;;;;;;29.09;70.41;99287.75;137509;1274;22109;-84
2023/08/15 07:22:33;;;;;;;9.20;6.60;;;;;;;29.23;62.69;99289.13;137530;1274;22069;-83
2023/08/15 07:25:41;;;;;;;9.20;6.70;;;;;;;29.45;60.65;99288.05;137582;1274;22046;-85
2023/08/15 07:28:45;;;;;;;30.00;25.90;;;;;;;29.63;58.76;99288.76;137530;1274;22070;-85
2023/08/15 07:31:47;;;;;;;10.20;9.20;;;;;;;29.80;56.28;99287.05;137504;1274;22054;-85
2023/08/15 07:34:50;;;;;;;11.70;7.70;;;;;;;29.86;55.10;99288.30;137542;1274;22139;-84
2023/08/15 07:37:53;;;;;;;8.70;7.10;;;;;;;29.98;54.54;99287.23;137519;1274;22576;-84
2023/08/15 07:40:55;;;;;;;8.10;7.10;;;;;;;30.08;54.92;99286.26;137473;1274;22097;-85
2023/08/15 07:43:58;;;;;;;10.00;8.10;;;;;;;30.26;55.02;99288.59;137501;1274;22097;-84
2023/08/15 07:47:01;;;;;;;9.90;7.40;;;;;;;30.36;53.93;99287.45;137481;1274;22086;-85
2023/08/15 07:50:03;;;;;;;7.40;6.70;;;;;;;30.35;53.94;99283.02;137372;1271;22143;-84
2023/08/15 07:53:06;;;;;;;;;;;;;;;30.32;53.40;99283.52;137477;1274;22252;-84
2023/08/15 07:56:09;;;;;;;8.90;7.30;;;;;;;30.28;53.60;99280.77;137480;1274;22243;-84
2023/08/15 07:59:11;;;;;;;10.50;8.80;;;;;;;30.29;53.23;99279.59;137480;1274;22294;-85
2023/08/15 08:02:14;;;;;;;11.50;8.30;;;;;;;30.32;53.76;99280.31;137371;1274;22120;-83
2023/08/15 08:05:17;;;;;;;9.40;7.60;;;;;;;30.42;52.58;99278.97;137531;1274;22124;-84
2023/08/15 08:08:19;;;;;;;;;;;;;;;30.53;53.27;99280.29;137568;1274;22291;-85
2023/08/15 08:11:22;;;;;;;8.90;8.10;;;;;;;30.66;52.26;99280.17;137544;1274;22745;-85
2023/08/15 08:14:24;;;;;;;8.30;7.30;;;;;;;30.77;52.27;99279.86;137497;1274;22058;-85
2023/08/15 08:17:27;;;;;;;7.70;6.40;;;;;;;30.99;52.00;99278.58;137480;1274;22077;-85
2023/08/15 08:20:30;;;;;;;;;;;;;;;31.23;51.76;99276.39;137485;1274;22200;-84
2023/08/15 08:23:32;;;;;;;7.10;6.10;;;;;;;31.43;50.77;99275.39;137493;1274;22195;-84
2023/08/15 08:26:35;;;;;;;6.70;5.60;;;;;;;31.42;49.74;99267.92;137468;1274;22100;-84
2023/08/15 08:29:38;;;;;;;7.00;6.30;;;;;;;31.47;49.98;99269.20;137505;1273;22300;-85
2023/08/15 08:32:40;;;;;;;7.20;5.20;;;;;;;31.56;49.47;99269.13;137572;1274;22292;-85
2023/08/15 08:35:43;;;;;;;8.50;5.40;;;;;;;31.68;48.80;99264.39;137469;1273;22629;-83
2023/08/15 08:38:45;;;;;;;6.40;5.90;;;;;;;31.74;48.05;99260.77;137464;1274;22802;-85
2023/08/15 08:41:50;;;;;;;8.10;5.30;;;;;;;31.85;47.11;99257.83;137449;1274;22508;-85
2023/08/15 08:44:53;;;;;;;6.60;6.00;;;;;;;31.84;46.75;99258.77;137457;1270;22146;-84
2023/08/15 08:47:55;;;;;;;10.30;5.70;;;;;;;32.00;46.42;99259.14;137410;1274;22093;-84
2023/08/15 08:50:57;;;;;;;10.00;4.70;;;;;;;32.08;45.72;99259.12;137441;1274;22192;-85
2023/08/15 08:54:00;;;;;;;5.40;4.90;;;;;;;32.12;44.67;99255.96;137469;1274;22138;-84
2023/08/15 08:57:04;;;;;;;6.80;6.20;;;;;;;32.19;43.83;99261.00;137483;1274;22535;-83
2023/08/15 09:00:09;;;;;;;12.10;10.60;;;;;;;32.21;43.24;99258.41;137470;1274;22415;-85
2023/08/15 09:03:11;;;;;;;6.00;5.10;;;;;;;32.14;41.88;99260.86;137483;1274;22455;-84
2023/08/15 09:06:15;;;;;;;4.90;4.50;;;;;;;32.01;40.34;99257.61;137499;1274;22084;-85
2023/08/15 09:09:17;;;;;;;7.60;5.50;;;;;;;31.95;40.67;99255.14;137475;1274;22122;-84
2023/08/15 09:12:20;;;;;;;6.90;4.40;;;;;;;32.05;41.09;99256.95;137422;1274;22514;-84
2023/08/15 09:15:23;;;;;;;6.20;4.60;;;;;;;32.13;41.08;99256.98;137394;1274;22108;-84
2023/08/15 09:18:26;;;;;;;6.70;4.60;;;;;;;32.12;41.29;99252.52;137446;1274;22035;-85
2023/08/15 09:21:29;;;;;;;;;;;;;;;32.02;40.78;99256.61;137428;1274;22318;-84
2023/08/15 09:24:31;;;;;;;9.60;4.80;;;;;;;32.14;41.54;99252.39;137444;1274;22490;-84
2023/08/15 09:27:34;;;;;;;8.90;4.90;;;;;;;32.28;41.30;99250.70;137459;1274;22044;-85
2023/08/15 09:30:36;;;;;;;5.70;4.60;;;;;;;32.46;41.35;99245.65;137438;1274;22839;-84
2023/08/15 09:33:38;;;;;;;7.30;5.30;;;;;;;32.64;41.05;99246.46;137476;1274;22529;-84
2023/08/15 09:36:43;;;;;;;5.40;4.90;;;;;;;32.84;40.16;99245.42;137453;1274;22133;-84
2023/08/15 09:39:46;;;;;;;5.20;4.80;;;;;;;32.98;39.42;99244.98;137505;1274;22160;-84
2023/08/15 09:42:48;;;;;;;8.70;5.30;;;;;;;33.01;39.60;99238.60;137501;1274;22177;-84
2023/08/15 09:45:50;;;;;;;8.10;5.00;;;;;;;33.07;39.20;99235.64;137529;1274;22083;-83
2023/08/15 09:48:53;;;;;;;6.70;4.50;;;;;;;32.98;38.96;99238.65;137542;1274;22609;-84
2023/08/15 09:51:55;;;;;;;7.40;4.50;;;;;;;32.90;38.00;99232.75;137524;1274;22625;-83
2023/08/15 09:54:58;;;;;;;6.60;4.90;;;;;;;32.94;38.88;99230.85;137492;1274;22488;-83
2023/08/15 09:58:00;;;;;;;6.00;4.70;;;;;;;33.06;38.06;99224.86;137552;1274;22085;-83
2023/08/15 10:01:03;;;;;;;5.10;4.50;;;;;;;33.14;38.30;99219.60;137443;1274;22242;-83
2023/08/15 10:04:07;;;;;;;;;;;;;;;33.23;37.52;99215.27;137454;1274;22461;-83
2023/08/15 10:07:09;;;;;;;6.30;4.70;;;;;;;33.21;37.27;99216.88;137454;1274;22256;-84
2023/08/15 10:10:11;;;;;;;38.60;7.40;;;;;;;33.32;37.75;99213.43;137508;1274;22062;-83
2023/08/15 10:13:14;;;;;;;6.30;4.90;;;;;;;33.46;37.55;99214.67;137462;1274;22215;-84
2023/08/15 10:16:17;;;;;;;;;;;;;;;33.47;36.92;99206.47;137481;1274;22260;-83
2023/08/15 10:19:20;;;;;;;6.50;4.80;;;;;;;33.27;37.24;99198.63;137362;1274;22264;-82
2023/08/15 10:22:23;;;;;;;6.10;4.30;;;;;;;33.21;37.25;99196.13;137379;1274;22078;-83
2023/08/15 10:25:25;;;;;;;7.90;4.90;;;;;;;33.18;37.27;99195.84;137475;1274;22561;-83
2023/08/15 10:28:28;;;;;;;;;;;;;;;33.22;37.25;99198.05;137498;1274;22289;-83
2023/08/15 10:31:31;;;;;;;6.60;5.40;;;;;;;33.20;36.38;99193.39;137458;1274;22643;-83
2023/08/15 10:34:33;;;;;;;7.60;5.20;;;;;;;33.17;36.61;99190.33;137458;1274;22743;-82
2023/08/15 10:37:37;;;;;;;8.20;4.60;;;;;;;33.07;35.95;99189.29;137473;1274;22149;-83
2023/08/15 10:40:40;;;;;;;6.40;5.10;;;;;;;33.09;37.00;99190.06;137425;1271;22375;-83
2023/08/15 10:43:42;;;;;;;;;;;;;;;33.25;35.65;99190.77;137460;1274;22210;-84
2023/08/15 10:46:45;;;;;;;12.40;5.50;;;;;;;33.29;36.06;99191.96;137470;1274;22149;-83
2023/08/15 10:49:47;;;;;;;9.90;5.20;;;;;;;33.34;35.26;99192.70;137549;1274;22179;-83
2023/08/15 10:52:50;;;;;;;9.60;4.70;;;;;;;33.16;35.86;99193.98;137447;1274;22197;-84
2023/08/15 10:55:55;;;;;;;4.40;3.90;;;;;;;33.00;35.67;99191.83;137437;1274;22520;-83
2023/08/15 10:58:58;;;;;;;8.30;4.70;;;;;;;33.17;35.12;99196.69;137382;1274;22389;-83
2023/08/15 11:02:00;;;;;;;5.60;3.70;;;;;;;33.27;34.47;99194.80;137510;1274;22479;-84
2023/08/15 11:05:03;;;;;;;5.30;4.50;;;;;;;33.40;34.77;99195.10;137522;1258;22284;-83
2023/08/15 11:08:05;;;;;;;;;;;;;;;33.52;34.81;99195.06;137488;1269;22208;-83
2023/08/15 11:11:08;;;;;;;7.60;4.20;;;;;;;33.69;34.33;99192.85;137518;1274;22196;-84
2023/08/15 11:14:11;;;;;;;8.70;4.30;;;;;;;33.80;33.90;99193.61;137518;1262;22066;-84
2023/08/15 11:17:14;;;;;;;;;;;;;;;33.92;33.80;99197.95;137491;1274;22235;-84
2023/08/15 11:20:16;;;;;;;7.00;4.10;;;;;;;33.95;34.14;99194.32;137448;1274;22106;-83
2023/08/15 11:23:20;;;;;;;5.00;4.30;;;;;;;33.86;34.07;99191.95;137480;1274;22050;-84
2023/08/15 11:26:23;;;;;;;10.70;5.10;;;;;;;33.79;34.11;99188.83;137510;1274;22101;-84
2023/08/15 11:29:25;;;;;;;5.90;5.30;;;;;;;33.84;34.33;99184.70;137456;1274;22154;-84
2023/08/15 11:32:28;;;;;;;8.50;6.40;;;;;;;34.00;34.58;99178.95;137457;1274;22349;-82
2023/08/15 11:35:30;;;;;;;9.80;4.80;;;;;;;34.12;34.06;99176.48;137516;1274;22176;-84
2023/08/15 11:38:33;;;;;;;6.20;5.10;;;;;;;34.12;34.25;99175.93;137542;1274;22170;-85
2023/08/15 11:41:38;;;;;;;8.20;5.30;;;;;;;34.08;34.17;99174.83;137469;1274;22224;-83
2023/08/15 11:44:42;;;;;;;12.20;5.30;;;;;;;34.13;33.58;99172.48;137351;1274;22383;-84
2023/08/15 11:47:44;;;;;;;6.20;4.50;;;;;;;34.10;33.64;99176.17;137279;1274;329689;-84
2023/08/15 11:50:47;;;;;;;4.50;4.10;;;;;;;34.13;33.85;99171.54;137554;1274;22151;-84
2023/08/15 11:53:52;;;;;;;;;;;;;;;34.17;33.82;99171.96;137534;1274;22326;-85
2023/08/15 11:56:55;;;;;;;6.90;5.00;;;;;;;34.21;33.55;99167.14;137494;1274;22050;-83
2023/08/15 11:59:58;;;;;;;;;;;;;;;34.24;33.88;99166.69;137498;1267;22421;-85
2023/08/15 12:03:00;;;;;;;8.30;4.90;;;;;;;34.19;32.47;99158.96;137549;1274;22057;-85
2023/08/15 12:06:03;;;;;;;;;;;;;;;34.12;33.82;99158.59;137567;1274;22202;-83
2023/08/15 12:09:06;;;;;;;8.70;7.50;;;;;;;34.06;33.24;99152.65;137499;1274;22323;-85
2023/08/15 12:12:08;;;;;;;10.30;8.80;;;;;;;33.94;33.12;99147.80;137463;1274;22413;-85
2023/08/15 12:15:11;;;;;;;5.60;5.10;;;;;;;33.86;34.19;99147.73;137408;1274;22087;-84
2023/08/15 12:18:13;;;;;;;7.90;6.50;;;;;;;34.07;33.55;99144.55;137450;1274;22079;-84
2023/08/15 12:21:16;;;;;;;;;;;;;;;34.09;33.14;99142.29;137455;1274;22253;-84
2023/08/15 12:24:18;;;;;;;7.60;4.90;;;;;;;34.07;32.68;99142.80;137396;1274;22309;-83
2023/08/15 12:27:21;;;;;;;11.90;6.70;;;;;;;34.22;32.98;99141.23;137398;1274;22101;-84
2023/08/15 12:30:23;;;;;;;5.70;4.70;;;;;;;34.32;32.43;99141.52;137418;1274;22097;-84
2023/08/15 12:33:26;;;;;;;6.40;4.10;;;;;;;34.36;32.14;99137.23;137399;1274;22492;-83
2023/08/15 12:36:28;;;;;;;6.00;5.40;;;;;;;34.40;31.99;99133.80;137398;1274;22549;-84
2023/08/15 12:39:31;;;;;;;10.00;7.00;;;;;;;34.43;32.08;99130.32;137379;1274;22100;-83
2023/08/15 12:42:34;;;;;;;9.40;8.20;;;;;;;34.30;31.39;99125.20;137418;1271;22159;-84
2023/08/15 12:45:36;;;;;;;7.60;6.80;;;;;;;34.06;31.82;99123.92;137453;1274;22108;-85
2023/08/15 12:48:39;;;;;;;;;;;;;;;34.05;32.46;99122.73;137478;1274;22189;-83
2023/08/15 12:51:41;;;;;;;6.20;5.60;;;;;;;34.21;31.91;99118.38;137425;1274;22075;-83
2023/08/15 12:54:44;;;;;;;6.50;3.90;;;;;;;34.28;31.73;99118.70;137460;1274;22077;-84
2023/08/15 12:57:46;;;;;;;7.10;4.90;;;;;;;34.38;31.65;99119.91;137457;1274;22073;-84
2023/08/15 13:00:50;;;;;;;7.30;4.40;;;;;;;34.40;31.45;99120.05;137457;1274;22591;-84
2023/08/15 13:03:53;;;;;;;6.00;4.50;;;;;;;34.38;31.17;99118.13;137475;1274;22302;-83
2023/08/15 13:06:55;;;;;;;5.40;4.60;;;;;;;34.33;31.30;99113.59;137508;1274;22106;-84
2023/08/15 13:09:58;;;;;;;6.80;5.00;;;;;;;34.41;31.27;99114.77;137486;1259;22078;-84
2023/08/15 13:13:00;;;;;;;5.30;4.10;;;;;;;34.31;31.02;99116.30;137466;1274;22073;-83
2023/08/15 13:16:03;;;;;;;9.40;3.90;;;;;;;34.24;31.25;99109.27;137480;1274;22099;-83
2023/08/15 13:19:05;;;;;;;5.50;3.80;;;;;;;34.39;31.20;99101.77;137505;1274;22091;-84
2023/08/15 13:22:08;;;;;;;8.30;4.30;;;;;;;34.41;30.98;99103.55;137419;1274;22061;-84
2023/08/15 13:25:10;;;;;;;8.20;4.30;;;;;;;34.35;30.76;99098.98;137475;1274;22228;-84
2023/08/15 13:28:13;;;;;;;5.80;4.50;;;;;;;34.46;30.36;99100.05;137492;1274;22199;-84
2023/08/15 13:31:15;;;;;;;;;;;;;;;34.57;30.73;99095.38;137539;1274;22482;-84
2023/08/15 13:34:20;;;;;;;5.20;3.90;;;;;;;34.60;30.67;99099.09;137485;1274;22060;-84
2023/08/15 13:37:22;;;;;;;7.40;4.10;;;;;;;34.65;30.11;99099.20;137485;1274;22145;-84
2023/08/15 13:40:24;;;;;;;;;;;;;;;34.65;30.04;99099.25;137522;1274;22278;-85
2023/08/15 13:43:27;;;;;;;10.70;4.30;;;;;;;34.67;29.90;99093.98;137357;1274;22033;-84
2023/08/15 13:46:30;;;;;;;28.50;25.70;;;;;;;34.83;29.44;99098.13;137510;1274;22075;-84
2023/08/15 13:49:32;;;;;;;;;;;;;;;33.92;29.52;99093.72;137551;1274;22729;-82
2023/08/15 13:52:36;;;;;;;7.80;6.10;;;;;;;33.04;30.72;99090.73;137460;1274;22058;-83
2023/08/15 13:55:38;;;;;;;9.50;8.20;;;;;;;33.45;30.64;99091.00;137491;1274;22182;-84
2023/08/15 13:58:41;;;;;;;8.00;7.20;;;;;;;33.89;30.31;99092.09;137464;1274;22282;-83